Time;durP1;ratioP1;P1;durP2;ratioP2;P2;SDS_P1;SDS_P2;PMS_P1;PMS_P2;Temp;Humidity;BMP_temperature;BMP_pressure;BME280_temperature;BME280_humidity;BME280_pressure;Samples;Min_cycle;Max_cycle;Signal;HPM_P1;HPM_P2
2023/06/21 00:03:04;;;;;;;7.95;7.10;;;20.60;92.70;;;19.60;83.04;100099.56;12433251;23;96377;-87
2023/06/21 00:08:08;;;;;;;8.70;7.18;;;20.50;93.00;;;19.55;83.79;100096.69;12383603;23;96921;-87
2023/06/21 00:13:12;;;;;;;8.77;6.60;;;20.40;93.40;;;19.44;84.47;100084.84;12407844;23;96574;-87
2023/06/21 00:18:16;;;;;;;8.02;7.22;;;20.30;93.80;;;19.39;84.71;100108.13;12385260;23;96445;-87
2023/06/21 00:23:19;;;;;;;7.78;6.95;;;20.30;94.20;;;19.30;85.28;100104.91;12387386;23;97093;-87
2023/06/21 00:28:23;;;;;;;10.45;7.28;;;20.20;94.40;;;19.22;85.13;100102.56;12386850;23;96437;-87
2023/06/21 00:33:26;;;;;;;8.57;6.80;;;20.10;94.70;;;19.18;85.12;100102.16;12386548;23;96657;-87
2023/06/21 00:38:36;;;;;;;8.02;6.40;;;20.00;95.00;;;19.12;85.82;100116.53;12412836;23;96551;-87
2023/06/21 00:43:39;;;;;;;9.00;7.20;;;20.00;95.30;;;19.09;85.99;100110.81;12412861;23;96610;-87
2023/06/21 00:48:43;;;;;;;7.88;7.05;;;20.00;95.60;;;19.03;86.37;100109.81;12413059;23;96384;-87
2023/06/21 00:53:47;;;;;;;8.45;6.93;;;19.90;95.90;;;18.98;86.09;100106.97;12409908;23;96436;-87
2023/06/21 00:58:51;;;;;;;8.00;6.88;;;19.90;96.10;;;19.02;86.10;100107.38;12383209;23;97172;-87
2023/06/21 01:03:55;;;;;;;9.65;7.25;;;19.90;96.20;;;19.01;86.04;100111.09;12380841;23;96505;-87
2023/06/21 01:09:25;;;;;;;10.82;7.35;;;19.90;96.40;;;18.99;86.01;100111.31;12408706;23;96454;-87
2023/06/21 01:15:09;;;;;;;;;;;19.90;96.60;;;18.95;86.66;100116.34;12435019;23;96680;-87
2023/06/21 01:20:18;;;;;;;7.03;6.03;;;19.80;97.10;;;18.91;86.33;100115.13;12397166;23;96455;-88
2023/06/21 01:25:50;;;;;;;;;;;19.80;96.80;;;18.87;87.05;100127.41;12411510;23;96736;-87
2023/06/21 01:30:58;;;;;;;7.00;6.37;;;19.80;97.50;;;18.79;86.98;100122.31;12408195;23;96840;-87
2023/06/21 01:36:03;;;;;;;7.18;6.47;;;19.70;97.10;;;18.67;88.11;100105.25;12410791;23;96564;-87
2023/06/21 01:41:10;;;;;;;9.90;7.25;;;19.60;97.50;;;18.59;88.53;100105.50;12386843;23;96431;-87
2023/06/21 01:46:15;;;;;;;8.70;7.43;;;19.50;97.90;;;18.56;88.74;100112.16;12413185;23;96863;-87
2023/06/21 01:51:23;;;;;;;8.18;7.38;;;19.50;98.10;;;18.51;88.46;100101.22;12384859;23;96492;-87
2023/06/21 01:56:27;;;;;;;8.95;7.22;;;19.40;98.30;;;18.53;88.41;100114.47;12387992;23;96486;-87
2023/06/21 02:01:32;;;;;;;7.70;6.90;;;19.40;98.40;;;18.52;89.04;100113.63;12386824;23;96505;-87
2023/06/21 02:06:39;;;;;;;8.52;7.18;;;19.40;98.60;;;18.47;89.08;100121.56;12386078;23;96498;-87
2023/06/21 02:11:43;;;;;;;8.05;7.25;;;19.40;98.80;;;18.44;89.59;100112.06;12386459;23;96437;-87
2023/06/21 02:16:47;;;;;;;8.00;7.20;;;19.40;99.00;;;18.40;89.46;100118.91;12433784;23;96292;-87
2023/06/21 02:21:52;;;;;;;8.15;6.88;;;19.30;99.10;;;18.33;89.69;100118.16;12409829;23;96447;-87
2023/06/21 02:26:55;;;;;;;7.85;6.75;;;19.20;99.30;;;18.34;89.89;100135.94;12434849;23;96456;-87
2023/06/21 02:31:59;;;;;;;10.43;8.18;;;19.20;99.50;;;18.31;90.07;100125.66;12408262;23;96520;-87
2023/06/21 02:37:03;;;;;;;10.52;7.38;;;19.20;99.70;;;18.24;91.28;100122.19;12408678;23;96457;-87
2023/06/21 02:42:07;;;;;;;8.23;7.03;;;19.20;99.90;;;18.24;91.34;100111.44;12408751;23;96516;-87
2023/06/21 02:47:10;;;;;;;12.77;7.53;;;19.10;99.90;;;18.25;91.74;100117.63;12408945;23;96516;-87
2023/06/21 02:52:14;;;;;;;9.35;7.20;;;19.20;99.90;;;18.25;91.71;100114.94;12384980;23;96862;-87
2023/06/21 02:57:18;;;;;;;9.70;7.63;;;19.20;99.90;;;18.25;91.66;100113.06;12385304;23;96598;-87
2023/06/21 03:02:21;;;;;;;11.95;7.82;;;19.10;99.90;;;18.23;91.68;100112.44;12408555;23;96452;-88
2023/06/21 03:07:27;;;;;;;7.47;6.78;;;19.10;99.90;;;18.22;92.75;100113.50;12407743;23;96851;-88
2023/06/21 03:12:33;;;;;;;8.55;7.60;;;19.10;99.90;;;18.24;92.52;100121.38;12409751;23;96512;-87
2023/06/21 03:17:38;;;;;;;8.27;7.32;;;19.10;99.90;;;18.27;92.39;100113.66;12409595;23;96316;-87
2023/06/21 03:22:44;;;;;;;9.25;7.68;;;19.20;99.90;;;18.30;92.94;100125.88;12408058;23;96554;-88
2023/06/21 03:27:48;;;;;;;8.80;7.95;;;19.20;99.90;;;18.31;93.56;100125.66;12386531;23;96490;-88
2023/06/21 03:32:52;;;;;;;8.98;7.50;;;19.20;99.90;;;18.41;93.59;100111.66;12406442;23;96670;-88
2023/06/21 03:37:56;;;;;;;8.95;7.35;;;19.30;99.90;;;18.52;93.31;100110.13;12408698;23;96507;-88
2023/06/21 03:43:00;;;;;;;8.07;6.97;;;19.40;99.90;;;18.58;93.43;100102.00;12408831;23;96498;-88
2023/06/21 03:48:05;;;;;;;8.15;7.05;;;19.50;99.90;;;18.68;93.62;100106.91;12408875;23;96390;-88
2023/06/21 03:53:09;;;;;;;8.88;7.55;;;19.60;99.90;;;18.77;93.40;100107.41;12407823;23;96517;-88
2023/06/21 03:58:13;;;;;;;9.82;6.85;;;19.70;99.90;;;18.83;93.00;100101.13;12384254;23;96661;-88
2023/06/21 04:03:17;;;;;;;14.43;7.30;;;19.70;99.90;;;18.87;92.81;100111.25;12407115;23;96401;-88
2023/06/21 04:08:21;;;;;;;8.90;7.35;;;19.80;99.90;;;18.98;92.69;100118.56;12382272;23;96815;-90
2023/06/21 04:13:25;;;;;;;10.90;7.57;;;19.90;99.90;;;19.05;92.94;100107.72;12384770;23;96619;-90
2023/06/21 04:18:28;;;;;;;8.30;7.43;;;20.00;99.90;;;19.05;92.62;100117.69;12382952;23;96677;-91
2023/06/21 04:23:32;;;;;;;9.45;7.55;;;20.00;99.90;;;19.19;92.70;100132.63;12406227;23;96502;-91
2023/06/21 04:28:40;;;;;;;9.07;6.55;;;20.10;99.90;;;19.25;92.08;100137.94;12384306;23;96676;-91
2023/06/21 04:33:43;;;;;;;9.77;7.03;;;20.20;99.90;;;19.47;93.00;100159.84;12407448;23;97549;-90
2023/06/21 04:38:48;;;;;;;7.38;6.40;;;20.30;99.90;;;19.66;91.93;100157.13;12407422;23;96409;-90
2023/06/21 04:43:52;;;;;;;9.48;7.63;;;20.60;99.90;;;19.86;89.96;100162.28;12406398;23;96486;-91
2023/06/21 04:48:56;;;;;;;10.05;7.65;;;20.70;99.90;;;19.99;89.54;100167.47;12383079;23;96726;-90
2023/06/21 04:54:00;;;;;;;9.60;7.25;;;20.90;99.90;;;20.15;89.34;100171.34;12406906;23;96478;-91
2023/06/21 04:59:04;;;;;;;8.00;7.03;;;21.10;99.90;;;20.30;89.46;100166.34;12408069;23;96423;-90
2023/06/21 05:04:08;;;;;;;7.38;6.13;;;21.20;99.90;;;20.49;89.25;100167.94;12383046;23;96935;-90
2023/06/21 05:09:11;;;;;;;9.60;6.75;;;21.40;99.90;;;20.68;88.52;100155.13;12384524;23;96786;-91
2023/06/21 05:14:15;;;;;;;7.32;6.63;;;21.60;99.90;;;20.92;86.87;100155.13;12384374;23;96653;-91
2023/06/21 05:19:18;;;;;;;9.75;7.30;;;21.90;99.90;;;21.07;85.03;100141.97;12433883;23;96453;-91
2023/06/21 05:24:22;;;;;;;10.27;7.30;;;22.00;99.90;;;21.25;81.76;100144.50;12387274;23;96493;-90
2023/06/21 05:29:26;;;;;;;9.60;7.30;;;22.20;99.30;;;21.29;80.89;100144.84;12387229;23;96718;-91
2023/06/21 05:34:31;;;;;;;13.10;7.70;;;22.30;98.60;;;21.41;78.59;100155.63;12385298;23;96638;-90
2023/06/21 05:39:34;;;;;;;9.05;6.82;;;22.30;97.90;;;21.56;77.82;100172.97;12384014;23;96445;-93
2023/06/21 05:44:39;;;;;;;14.45;7.03;;;22.40;97.70;;;21.74;78.44;100166.56;12386398;23;96882;-92
2023/06/21 05:49:43;;;;;;;12.05;7.70;;;22.70;97.80;;;22.02;76.27;100171.16;12399777;23;96423;-92
2023/06/21 05:54:46;;;;;;;8.95;7.43;;;22.90;97.20;;;22.23;76.17;100160.69;12385275;23;96468;-93
2023/06/21 05:59:50;;;;;;;13.27;7.75;;;23.10;96.80;;;22.35;74.80;100154.13;12385656;23;96508;-93
2023/06/21 06:04:54;;;;;;;9.38;8.20;;;23.30;96.40;;;22.62;74.48;100162.41;12392449;23;97328;-93
2023/06/21 06:09:59;;;;;;;8.63;6.65;;;23.50;96.40;;;22.82;74.01;100152.94;12408977;23;97042;-92
2023/06/21 06:15:05;;;;;;;11.73;7.30;;;23.70;95.90;;;23.07;72.08;100153.31;12407708;23;96816;-93
2023/06/21 06:20:09;;;;;;;8.52;6.90;;;24.00;95.30;;;23.26;69.80;100148.38;12408684;23;96372;-92
2023/06/21 06:25:13;;;;;;;8.98;6.97;;;24.20;94.70;;;23.48;71.33;100161.94;12385873;23;96695;-92
2023/06/21 06:30:17;;;;;;;9.25;8.10;;;24.40;94.70;;;23.71;68.90;100156.28;12385347;23;96570;-93
2023/06/21 06:35:21;;;;;;;14.68;7.50;;;24.60;93.90;;;23.84;67.69;100151.50;12385535;23;96719;-93
2023/06/21 06:40:24;;;;;;;7.72;6.85;;;24.80;93.30;;;24.04;66.38;100144.34;12408927;23;96481;-93
2023/06/21 06:45:28;;;;;;;11.82;7.45;;;25.00;93.00;;;24.26;67.09;100155.16;12384462;23;96501;-92
2023/06/21 06:50:32;;;;;;;13.32;8.30;;;25.20;92.80;;;24.49;65.37;100153.19;12387581;23;96567;-92
2023/06/21 06:55:35;;;;;;;12.25;7.40;;;25.40;92.30;;;24.71;63.79;100139.47;12383091;23;97318;-92
2023/06/21 07:00:39;;;;;;;18.52;8.13;;;25.70;91.70;;;24.91;64.33;100147.75;12383106;23;96597;-92
2023/06/21 07:05:46;;;;;;;13.98;7.72;;;25.80;91.50;;;25.05;62.03;100153.53;12386447;23;96852;-92
2023/06/21 07:10:50;;;;;;;11.95;8.77;;;26.00;90.80;;;25.13;60.41;100150.34;12407651;23;96922;-91
2023/06/21 07:15:53;;;;;;;11.13;7.90;;;26.10;90.10;;;25.22;60.93;100151.44;12386257;23;96845;-90
2023/06/21 07:20:57;;;;;;;11.55;7.90;;;26.20;90.00;;;25.34;61.62;100140.34;12387206;23;96310;-91
2023/06/21 07:26:02;;;;;;;11.10;7.35;;;26.30;90.40;;;25.60;61.50;100143.94;12409586;23;97009;-90
2023/06/21 07:31:07;;;;;;;10.70;7.45;;;26.50;90.10;;;25.85;60.99;100133.16;12387507;23;96808;-89
2023/06/21 07:36:10;;;;;;;11.43;8.32;;;26.80;89.60;;;26.08;58.08;100136.44;12387023;23;96625;-91
2023/06/21 07:41:15;;;;;;;9.20;7.15;;;27.00;87.70;;;26.35;58.61;100133.44;12387334;23;96423;-91
2023/06/21 07:46:18;;;;;;;9.13;7.05;;;27.30;87.70;;;26.72;56.93;100135.06;12385559;23;97133;-90
2023/06/21 07:51:22;;;;;;;10.18;7.80;;;27.60;86.50;;;26.89;56.77;100139.09;12401530;23;96502;-89
2023/06/21 07:56:27;;;;;;;10.88;6.90;;;27.80;85.60;;;27.14;57.21;100134.66;12384210;23;96732;-89
2023/06/21 08:01:30;;;;;;;8.70;7.07;;;28.00;85.60;;;27.30;55.75;100119.88;12404640;23;96961;-90
2023/06/21 08:06:34;;;;;;;10.50;7.90;;;28.30;84.50;;;27.41;56.81;100116.00;12386742;23;96939;-90
2023/06/21 08:11:37;;;;;;;9.68;7.72;;;28.40;84.40;;;27.52;56.75;100114.00;12409379;23;96595;-89
2023/06/21 08:16:41;;;;;;;8.45;7.60;;;28.50;84.30;;;27.64;54.74;100149.97;12433168;23;96455;-89
2023/06/21 08:21:44;;;;;;;17.80;8.82;;;28.60;83.20;;;27.81;55.46;100143.34;12387440;23;96378;-91
2023/06/21 08:26:49;;;;;;;12.65;8.82;;;28.70;83.10;;;27.92;54.60;100151.19;12386239;23;97057;-90
2023/06/21 08:31:52;;;;;;;11.52;7.28;;;28.80;82.50;;;28.05;54.63;100154.38;12383132;23;96901;-89
2023/06/21 08:36:56;;;;;;;10.70;7.28;;;29.00;82.80;;;28.32;53.41;100162.13;12406077;23;97216;-89
2023/06/21 08:42:00;;;;;;;8.38;6.45;;;29.20;81.60;;;28.55;52.11;100164.09;12408671;23;96544;-90
2023/06/21 08:47:06;;;;;;;8.88;6.93;;;29.50;80.50;;;28.70;50.63;100161.19;12386155;23;96562;-90
2023/06/21 08:52:17;;;;;;;15.38;8.40;;;29.70;79.00;;;28.85;50.60;100157.50;12386664;23;96516;-90
2023/06/21 08:57:23;;;;;;;11.60;7.60;;;29.80;78.10;;;28.96;51.83;100159.03;12391957;23;96524;-89
2023/06/21 09:02:52;;;;;;;13.15;8.35;;;29.90;78.70;;;29.01;51.85;100158.16;12386734;23;96435;-91
2023/06/21 09:07:58;;;;;;;10.65;8.38;;;29.90;78.80;;;29.14;51.18;100151.97;12410912;23;96420;-92
2023/06/21 09:13:04;;;;;;;9.90;8.32;;;30.10;78.20;;;29.21;50.60;100132.47;12388442;23;96468;-90
2023/06/21 09:18:08;;;;;;;8.85;7.90;;;30.20;77.70;;;29.37;50.54;100142.13;12411121;23;96386;-91
2023/06/21 09:23:11;;;;;;;11.25;8.63;;;30.30;77.30;;;29.52;50.29;100136.47;12410328;23;96478;-90
2023/06/21 09:28:15;;;;;;;11.30;8.25;;;30.50;77.10;;;29.91;49.84;100140.81;12385027;23;96405;-91
2023/06/21 09:33:18;;;;;;;12.13;8.40;;;30.80;76.10;;;30.11;48.35;100146.03;12386602;23;96584;-90
2023/06/21 09:38:28;;;;;;;10.20;8.20;;;31.00;75.30;;;30.26;47.78;100147.69;12387063;23;96552;-91
2023/06/21 09:43:32;;;;;;;12.55;7.40;;;31.20;74.50;;;30.47;47.20;100131.72;12387008;23;96628;-90
2023/06/21 09:48:37;;;;;;;12.35;7.70;;;31.40;74.20;;;30.77;47.23;100141.31;12411256;23;96525;-91
2023/06/21 09:53:43;;;;;;;8.98;8.07;;;31.70;73.90;;;30.97;46.97;100145.59;12427820;23;96759;-92
2023/06/21 09:58:49;;;;;;;12.23;8.80;;;31.90;73.00;;;31.02;45.92;100142.75;12436669;23;96479;-91
2023/06/21 10:03:53;;;;;;;13.15;8.40;;;32.00;71.70;;;31.01;45.46;100143.03;12411540;23;96511;-91
2023/06/21 10:08:58;;;;;;;9.80;8.38;;;32.00;71.00;;;30.96;46.74;100141.22;12385715;23;96297;-90
2023/06/21 10:14:02;;;;;;;14.70;7.85;;;31.90;72.30;;;30.88;46.19;100139.97;12408174;23;96521;-90
2023/06/21 10:19:06;;;;;;;12.93;7.82;;;31.80;72.10;;;30.75;45.62;100137.25;12383797;23;96790;-90
2023/06/21 10:24:13;;;;;;;9.52;8.50;;;31.70;71.30;;;30.58;47.70;100138.59;12414571;23;96418;-90
2023/06/21 10:29:18;;;;;;;10.65;8.05;;;31.50;72.90;;;30.50;48.76;100153.03;12386160;23;96598;-90
2023/06/21 10:34:27;;;;;;;11.27;8.60;;;31.40;73.00;;;30.35;49.18;100153.31;12406273;23;96500;-90
2023/06/21 10:39:33;;;;;;;10.68;8.18;;;31.30;74.10;;;30.26;50.38;100163.31;12409472;23;96834;-90
2023/06/21 10:44:39;;;;;;;12.75;8.02;;;31.10;75.20;;;30.15;50.27;100164.59;12386870;23;96436;-90
2023/06/21 10:49:44;;;;;;;9.82;7.97;;;31.00;75.20;;;30.02;50.78;100158.72;12386870;23;96571;-89
2023/06/21 10:54:49;;;;;;;12.82;7.97;;;30.90;75.30;;;29.89;50.32;100153.19;12387222;23;96442;-89
2023/06/21 10:59:56;;;;;;;12.63;7.72;;;30.80;75.10;;;29.75;51.12;100164.09;12386743;23;96545;-90
2023/06/21 11:05:19;;;;;;;9.70;8.15;;;30.70;75.40;;;29.66;52.06;100161.19;12386152;23;96658;-89
2023/06/21 11:10:52;;;;;;;8.00;7.18;;;30.60;75.90;;;29.62;52.93;100160.13;12432761;23;96440;-90
2023/06/21 11:16:07;;;;;;;10.68;8.25;;;30.50;76.60;;;29.71;54.22;100165.78;12390882;23;96655;-90
2023/06/21 11:21:11;;;;;;;13.85;8.52;;;30.70;77.80;;;29.80;54.94;100166.72;12392410;23;97210;-90
2023/06/21 11:26:16;;;;;;;11.43;8.43;;;30.70;78.40;;;29.75;54.79;100167.66;12408701;23;96594;-91
2023/06/21 11:31:24;;;;;;;10.45;8.95;;;30.50;78.70;;;29.65;55.34;100170.53;12384760;23;96436;-91
2023/06/21 11:36:34;;;;;;;14.05;9.25;;;30.40;79.10;;;29.62;57.00;100154.66;12385800;23;96802;-89
2023/06/21 11:41:44;;;;;;;12.68;8.90;;;30.40;80.40;;;29.73;56.33;100155.34;12408812;23;96685;-90
2023/06/21 11:46:49;;;;;;;12.05;9.25;;;30.50;80.40;;;29.68;56.42;100136.25;12416961;23;96480;-89
2023/06/21 11:52:04;;;;;;;14.00;9.38;;;30.50;80.70;;;29.80;56.72;100134.69;12386833;23;96576;-89
2023/06/21 11:57:09;;;;;;;16.30;9.57;;;30.50;81.20;;;30.12;56.69;100124.91;12384896;23;96377;-89
2023/06/21 12:02:20;;;;;;;9.10;8.20;;;30.80;81.20;;;30.25;53.28;100115.09;12383568;23;96517;-89
2023/06/21 12:07:25;;;;;;;8.88;7.80;;;31.10;79.00;;;30.27;52.03;100129.31;12408859;23;96489;-90
2023/06/21 12:12:29;;;;;;;8.63;7.22;;;31.10;77.20;;;30.40;54.25;100114.81;12409113;23;97247;-91
2023/06/21 12:17:32;;;;;;;8.35;7.20;;;31.30;78.20;;;30.79;50.80;100121.81;12384110;23;96572;-90
2023/06/21 12:22:37;;;;;;;7.93;6.93;;;31.80;76.00;;;31.24;50.42;100109.09;12383802;23;96590;-90
2023/06/21 12:27:55;;;;;;;10.40;7.65;;;32.50;74.60;;;31.76;48.09;100111.50;12385262;23;96818;-91
2023/06/21 12:32:59;;;;;;;;;;;33.30;73.10;;;32.19;47.29;100120.88;12385466;23;97220;-91
2023/06/21 12:38:13;;;;;;;7.40;6.68;;;34.00;72.20;;;32.74;46.86;100112.28;12388107;23;96536;-91
2023/06/21 12:43:52;;;;;;;6.45;5.47;;;34.80;70.70;;;33.26;43.39;100117.97;12385222;23;96447;-90
2023/06/21 12:48:58;;;;;;;10.80;6.82;;;35.50;68.10;;;33.71;43.88;100115.00;12406969;23;96514;-91
2023/06/21 12:54:18;;;;;;;8.07;6.00;;;35.80;67.20;;;34.17;40.60;100102.44;12405494;23;96531;-92
2023/06/21 12:59:21;;;;;;;7.68;6.82;;;36.00;65.80;;;34.50;40.31;100097.19;12389751;23;96626;-92
2023/06/21 13:04:25;;;;;;;12.07;6.95;;;35.80;64.30;;;34.72;39.92;100095.31;12383581;23;96513;-90
2023/06/21 13:09:34;;;;;;;7.28;6.68;;;35.80;63.40;;;34.69;39.28;100099.56;12407271;23;96441;-91
2023/06/21 13:14:37;;;;;;;7.32;6.03;;;35.70;63.00;;;34.40;39.38;100093.97;12386138;23;96394;-91
2023/06/21 13:19:41;;;;;;;9.00;6.43;;;35.50;62.90;;;34.24;39.81;100093.66;12407254;23;96860;-90
2023/06/21 13:24:48;;;;;;;8.48;6.38;;;35.30;62.40;;;34.22;39.06;100090.44;12384769;23;96488;-91
2023/06/21 13:29:52;;;;;;;7.05;5.93;;;35.50;61.80;;;34.05;38.52;100081.06;12411278;23;96945;-92
2023/06/21 13:34:55;;;;;;;8.65;5.82;;;35.40;60.70;;;34.31;37.45;100074.69;12409524;23;96661;-91
2023/06/21 13:39:59;;;;;;;7.25;6.57;;;35.50;60.20;;;34.37;37.94;100061.50;12409312;23;97052;-93
2023/06/21 13:45:04;;;;;;;7.03;6.18;;;35.60;60.50;;;34.35;39.02;100048.84;12389340;23;96587;-89
2023/06/21 13:50:08;;;;;;;7.38;6.47;;;35.60;60.60;;;34.46;38.25;100062.31;12397540;23;96486;-90
2023/06/21 13:55:15;;;;;;;8.23;7.22;;;35.60;60.40;;;34.42;38.84;100069.59;12384422;23;96526;-90
2023/06/21 14:00:20;;;;;;;8.17;7.37;;;35.30;60.60;;;34.34;39.25;100063.78;12385561;23;96970;-89
2023/06/21 14:05:24;;;;;;;8.00;6.70;;;35.20;61.40;;;34.01;38.65;100065.53;12386079;23;96602;-89
2023/06/21 14:10:28;;;;;;;9.70;6.70;;;35.00;60.70;;;33.87;39.45;100062.09;12383586;23;96469;-90
2023/06/21 14:15:32;;;;;;;7.75;6.20;;;34.80;61.10;;;33.79;40.54;100083.03;12407070;23;96502;-90
2023/06/21 14:20:36;;;;;;;7.55;6.10;;;34.70;62.20;;;33.79;40.12;100067.31;12383863;23;96544;-90
2023/06/21 14:25:43;;;;;;;6.88;6.00;;;34.60;61.70;;;33.77;39.21;100086.13;12405699;23;96827;-91
2023/06/21 14:30:47;;;;;;;7.20;5.50;;;34.60;61.20;;;33.62;39.57;100074.78;12407889;23;96896;-89
2023/06/21 14:35:53;;;;;;;7.40;6.68;;;34.50;61.40;;;33.58;39.73;100077.38;12382129;23;96911;-90
2023/06/21 14:40:57;;;;;;;7.95;5.75;;;34.40;61.70;;;33.61;39.87;100090.50;12404849;23;96965;-90
2023/06/21 14:46:01;;;;;;;7.80;6.03;;;34.40;62.00;;;33.73;39.93;100095.38;12382584;23;96919;-91
2023/06/21 14:51:10;;;;;;;6.28;5.68;;;34.50;61.70;;;33.72;39.95;100108.34;12406134;23;96843;-91
2023/06/21 14:56:14;;;;;;;7.95;5.97;;;34.50;61.70;;;33.82;39.68;100088.69;12406586;23;96556;-91
2023/06/21 15:01:17;;;;;;;6.30;5.60;;;34.60;61.70;;;33.89;38.13;100096.50;12432049;23;96743;-91
2023/06/21 15:06:23;;;;;;;6.05;5.40;;;34.60;61.30;;;33.96;39.28;100091.31;12385337;23;96508;-90
2023/06/21 15:11:27;;;;;;;9.10;6.20;;;34.70;61.10;;;33.97;38.51;100081.09;12385386;23;96898;-90
2023/06/21 15:16:39;;;;;;;8.32;6.07;;;34.80;60.60;;;34.06;38.89;100087.38;12391499;23;96505;-89
2023/06/21 15:21:42;;;;;;;5.95;5.32;;;34.90;61.10;;;34.10;38.71;100071.81;12387179;23;96458;-90
2023/06/21 15:26:46;;;;;;;6.80;6.18;;;35.00;60.40;;;34.22;38.34;100062.88;12389411;23;96529;-89
2023/06/21 15:31:50;;;;;;;6.72;5.80;;;35.20;59.30;;;34.27;38.26;100055.22;12384414;23;96479;-91
2023/06/21 15:36:53;;;;;;;5.93;5.25;;;35.60;59.30;;;34.27;38.67;100060.75;12384733;23;96848;-91
2023/06/21 15:41:57;;;;;;;6.40;5.80;;;35.80;59.40;;;34.51;38.78;100078.69;12385008;23;96489;-91
2023/06/21 15:47:01;;;;;;;6.47;5.78;;;36.00;59.90;;;34.72;37.66;100076.78;12384280;23;96514;-89
2023/06/21 15:52:05;;;;;;;6.47;5.88;;;36.20;59.30;;;34.98;37.76;100089.69;12382732;23;96676;-91
2023/06/21 15:57:08;;;;;;;7.00;5.95;;;36.40;58.80;;;35.05;36.90;100098.25;12384945;23;96543;-89
2023/06/21 16:02:12;;;;;;;7.75;6.55;;;36.20;58.30;;;35.01;36.63;100083.50;12413802;23;96408;-91
2023/06/21 16:07:16;;;;;;;7.25;5.00;;;36.00;58.20;;;34.86;37.54;100077.38;12387739;23;96523;-92
2023/06/21 16:12:20;;;;;;;7.13;6.43;;;35.70;58.80;;;34.71;37.92;100085.41;12383489;23;96689;-92
2023/06/21 16:17:24;;;;;;;7.82;5.32;;;35.50;59.20;;;34.64;37.97;100068.56;12382643;23;96542;-91
2023/06/21 16:22:27;;;;;;;7.43;6.18;;;35.50;59.40;;;34.61;37.76;100070.06;12384040;23;96841;-91
2023/06/21 16:27:31;;;;;;;9.15;6.15;;;35.50;59.30;;;34.49;38.11;100094.78;12384198;23;96514;-91
2023/06/21 16:32:35;;;;;;;9.18;6.25;;;35.20;59.40;;;34.25;38.65;100095.31;12429447;23;96572;-92
2023/06/21 16:37:39;;;;;;;7.65;6.20;;;35.00;59.90;;;33.86;39.04;100112.84;12384416;23;97322;-91
2023/06/21 16:42:43;;;;;;;6.63;6.00;;;34.50;60.50;;;33.56;39.68;100109.94;12384773;23;96953;-91
2023/06/21 16:47:47;;;;;;;7.00;5.80;;;34.20;61.00;;;33.42;41.16;100088.06;12407767;23;96546;-91
2023/06/21 16:52:50;;;;;;;7.75;6.32;;;34.00;62.10;;;33.31;43.00;100103.25;12409338;23;96571;-91
2023/06/21 16:57:54;;;;;;;7.28;6.20;;;34.10;63.20;;;33.11;43.87;100107.44;12384392;23;97259;-91
2023/06/21 17:02:58;;;;;;;8.85;6.55;;;34.00;64.30;;;32.95;46.09;100096.06;12386372;23;96976;-91
2023/06/21 17:08:06;;;;;;;8.70;6.93;;;33.90;65.50;;;32.90;45.21;100078.88;12409952;23;96487;-91
2023/06/21 17:13:11;;;;;;;7.97;6.25;;;34.00;65.30;;;32.94;44.87;100077.13;12410173;23;96386;-90
2023/06/21 17:18:15;;;;;;;7.50;6.35;;;33.90;65.60;;;32.88;45.32;100073.69;12409697;23;96512;-90
2023/06/21 17:23:18;;;;;;;7.65;6.80;;;33.90;66.50;;;32.83;46.64;100084.81;12387128;23;96796;-90
2023/06/21 17:28:23;;;;;;;7.90;6.72;;;33.80;67.00;;;32.57;47.32;100104.00;12410638;23;96436;-90
2023/06/21 17:33:26;;;;;;;9.65;7.10;;;33.50;68.30;;;32.29;48.81;100113.53;12410843;23;96544;-90
2023/06/21 17:38:30;;;;;;;9.93;6.85;;;33.10;69.10;;;31.84;50.70;100111.59;12399515;23;96711;-90
2023/06/21 17:43:34;;;;;;;9.20;6.72;;;32.60;69.90;;;31.32;51.50;100124.84;12398150;23;97058;-90
2023/06/21 17:48:39;;;;;;;11.30;7.90;;;32.20;70.80;;;30.94;52.62;100151.66;12411094;23;96411;-92
2023/06/21 17:53:43;;;;;;;14.35;12.52;;;31.70;71.90;;;30.57;53.60;100150.69;12421718;23;96829;-92
2023/06/21 17:58:47;;;;;;;10.77;8.52;;;31.40;72.60;;;30.31;54.87;100138.56;12432391;23;96698;-93
2023/06/21 18:03:50;;;;;;;10.18;8.00;;;31.10;73.20;;;29.96;54.32;100118.00;12411112;23;96769;-92
2023/06/21 18:08:55;;;;;;;8.00;7.20;;;30.80;73.30;;;29.58;55.32;100121.59;12394929;23;97061;-91
2023/06/21 18:14:01;;;;;;;11.18;7.85;;;30.50;73.60;;;29.24;56.19;100129.16;12388726;23;96628;-92
2023/06/21 18:19:05;;;;;;;11.95;9.07;;;30.20;74.80;;;28.99;57.47;100133.03;12432980;23;96873;-91
2023/06/21 18:24:10;;;;;;;11.20;9.70;;;29.90;74.90;;;28.70;58.52;100163.13;12391855;23;96549;-93
2023/06/21 18:29:14;;;;;;;9.52;8.30;;;29.60;75.60;;;28.40;59.22;100181.44;12386626;23;96666;-91
2023/06/21 18:34:18;;;;;;;25.60;17.73;;;29.30;76.30;;;28.10;61.41;100187.13;12410352;23;96505;-91
2023/06/21 18:39:21;;;;;;;18.60;12.60;;;28.90;77.90;;;27.74;65.40;100177.25;12386049;23;96695;-92
2023/06/21 18:44:26;;;;;;;11.63;10.13;;;28.50;80.60;;;27.57;67.80;100186.84;12410000;23;96538;-93
2023/06/21 18:49:34;;;;;;;10.53;9.43;;;28.20;82.70;;;27.33;68.99;100189.41;12385183;23;96846;-94
2023/06/21 18:54:37;;;;;;;23.08;17.45;;;28.00;83.80;;;27.23;69.14;100214.00;12410250;23;96537;-93
2023/06/21 18:59:41;;;;;;;12.23;10.75;;;27.90;84.30;;;27.10;68.74;100218.13;12407212;23;96775;-93
2023/06/21 19:04:45;;;;;;;10.25;8.85;;;27.80;84.50;;;27.03;68.03;100203.94;12406019;23;96932;-93
2023/06/21 19:09:48;;;;;;;9.23;8.27;;;27.70;84.30;;;27.01;67.72;100190.59;12384868;23;96586;-93
2023/06/21 19:14:52;;;;;;;8.88;7.90;;;27.70;84.30;;;27.01;68.30;100173.41;12386891;23;96777;-92
2023/06/21 19:19:56;;;;;;;9.75;8.75;;;27.70;84.30;;;26.99;69.40;100211.03;12385116;23;96439;-93
2023/06/21 19:25:00;;;;;;;8.95;8.02;;;27.70;84.90;;;26.96;69.77;100239.69;12387653;23;96609;-93
2023/06/21 19:30:04;;;;;;;11.23;9.65;;;27.70;85.60;;;26.85;70.87;100238.06;12408777;23;96423;-92
2023/06/21 19:35:17;;;;;;;10.30;7.55;;;27.60;86.40;;;26.67;70.13;100256.63;12386161;23;96470;-95
2023/06/21 19:40:22;;;;;;;14.20;7.82;;;27.40;86.20;;;25.94;77.90;100336.81;12410313;23;96718;-92
2023/06/21 19:45:26;;;;;;;15.50;8.13;;;26.70;90.20;;;24.98;81.17;100294.28;12384867;23;96780;-92
2023/06/21 19:50:30;;;;;;;12.20;7.95;;;25.90;91.40;;;24.41;84.90;100289.44;12386729;23;97338;-92
2023/06/21 19:55:34;;;;;;;7.50;6.40;;;25.20;92.60;;;24.03;87.21;100283.06;12408294;23;96473;-91
2023/06/21 20:00:37;;;;;;;12.60;8.57;;;24.80;93.30;;;23.82;91.79;100313.75;12385782;23;96583;-93
2023/06/21 20:05:41;;;;;;;14.48;9.70;;;24.70;94.50;;;23.57;95.89;100309.63;12409150;23;96427;-93
2023/06/21 20:10:46;;;;;;;10.00;8.55;;;24.50;95.60;;;23.43;98.25;100319.97;12386680;23;96428;-93
2023/06/21 20:15:52;;;;;;;13.07;8.57;;;24.40;96.60;;;23.48;98.87;100314.63;12387937;23;97521;-93
2023/06/21 20:20:56;;;;;;;11.38;9.10;;;24.40;97.70;;;23.46;100.00;100322.22;12411444;23;96496;-94
2023/06/21 20:26:00;;;;;;;9.52;8.48;;;24.40;98.70;;;23.40;100.00;100330.53;12386502;23;96700;-93
2023/06/21 20:31:04;;;;;;;11.73;8.82;;;24.30;99.60;;;23.43;100.00;100381.53;12386540;23;96849;-93
2023/06/21 20:36:08;;;;;;;9.18;8.27;;;24.30;99.90;;;23.47;100.00;100371.84;12412293;23;96607;-93
2023/06/21 20:41:11;;;;;;;9.60;8.00;;;24.30;99.90;;;23.40;100.00;100363.88;12401847;23;96565;-94
2023/06/21 20:46:15;;;;;;;12.27;8.73;;;24.40;99.90;;;23.42;100.00;100385.31;12414768;23;96733;-93
2023/06/21 20:51:19;;;;;;;10.02;7.75;;;24.40;99.90;;;23.34;100.00;100393.88;12388220;23;96638;-94